Terminal Aerodrome Forecast
Issued by NWS Corpus Christi, TX

Home | Current Version | Previous Version | Text Only | Print | Product List | Glossary On
Versions: 1 2 3 4 5 6 7 8 9 10 11 12 13 14 15 16 17
916
FTUS44 KCRP 261741
TAFVCT
TAF
KVCT 261741Z 2618/2718 07008KT P6SM VCTS BKN035CB
      TEMPO 2618/2622 VRB15G25KT 5SM TSRA OVC030CB
     FM262200 11010KT P6SM SCT050 BKN250
     FM270200 VRB06KT P6SM SCT025 BKN050
     FM271500 06008KT P6SM VCTS SCT025 BKN035CB=

USA.gov is the U.S. government's official web portal to all federal, state and local government web resources and services.